地図

経路データ

SID SEASON NUMBER BASIN SUBBASIN NAME ISO_TIME NATURE LAT LON WMO_WIND WMO_PRES WMO_AGENCY TRACK_TYPE DIST2LAND LANDFALL IFLAG USA_AGENCY USA_ATCF_ID USA_LAT USA_LON USA_RECORD USA_STATUS USA_WIND USA_PRES USA_SSHS USA_R34_NE USA_R34_SE USA_R34_SW USA_R34_NW USA_R50_NE USA_R50_SE USA_R50_SW USA_R50_NW USA_R64_NE USA_R64_SE USA_R64_SW USA_R64_NW USA_POCI USA_ROCI USA_RMW USA_EYE TOKYO_LAT TOKYO_LON TOKYO_GRADE TOKYO_WIND TOKYO_PRES TOKYO_R50_DIR TOKYO_R50_LONG TOKYO_R50_SHORT TOKYO_R30_DIR TOKYO_R30_LONG TOKYO_R30_SHORT TOKYO_LAND CMA_LAT CMA_LON CMA_CAT CMA_WIND CMA_PRES HKO_LAT HKO_LON HKO_CAT HKO_WIND HKO_PRES NEWDELHI_LAT NEWDELHI_LON NEWDELHI_GRADE NEWDELHI_WIND NEWDELHI_PRES NEWDELHI_CI NEWDELHI_DP NEWDELHI_POCI REUNION_LAT REUNION_LON REUNION_TYPE REUNION_WIND REUNION_PRES REUNION_TNUM REUNION_CI REUNION_RMW REUNION_R34_NE REUNION_R34_SE REUNION_R34_SW REUNION_R34_NW REUNION_R50_NE REUNION_R50_SE REUNION_R50_SW REUNION_R50_NW REUNION_R64_NE REUNION_R64_SE REUNION_R64_SW REUNION_R64_NW BOM_LAT BOM_LON BOM_TYPE BOM_WIND BOM_PRES BOM_TNUM BOM_CI BOM_RMW BOM_R34_NE BOM_R34_SE BOM_R34_SW BOM_R34_NW BOM_R50_NE BOM_R50_SE BOM_R50_SW BOM_R50_NW BOM_R64_NE BOM_R64_SE BOM_R64_SW BOM_R64_NW BOM_ROCI BOM_POCI BOM_EYE BOM_POS_METHOD BOM_PRES_METHOD NADI_LAT NADI_LON NADI_CAT NADI_WIND NADI_PRES WELLINGTON_LAT WELLINGTON_LON WELLINGTON_WIND WELLINGTON_PRES DS824_LAT DS824_LON DS824_STAGE DS824_WIND DS824_PRES TD9636_LAT TD9636_LON TD9636_STAGE TD9636_WIND TD9636_PRES TD9635_LAT TD9635_LON TD9635_WIND TD9635_PRES TD9635_ROCI NEUMANN_LAT NEUMANN_LON NEUMANN_CLASS NEUMANN_WIND NEUMANN_PRES MLC_LAT MLC_LON MLC_CLASS MLC_WIND MLC_PRES USA_GUST BOM_GUST BOM_GUST_PER REUNION_GUST REUNION_GUST_PER USA_SEAHGT USA_SEARAD_NE USA_SEARAD_SE USA_SEARAD_SW USA_SEARAD_NW STORM_SPEED STORM_DIR
1964240N15111 1964 71 WP MM NOT_NAMED 1964-08-26 12:00:00 NR 14.7000 111.200 main 223 204 __________O___ -1 14.7000 111.200 1 3 288
1964240N15111 1964 71 WP MM NOT_NAMED 1964-08-26 15:00:00 NR 14.7546 111.032 main 204 193 __________P___ -1 14.7546 111.032 1 4 292
1964240N15111 1964 71 WP MM NOT_NAMED 1964-08-26 18:00:00 NR 14.8373 110.841 main 183 162 __________P___ -1 14.8373 110.841 1 5 298
1964240N15111 1964 71 WP MM NOT_NAMED 1964-08-26 21:00:00 NR 14.9764 110.605 main 164 140 __________P___ -1 14.9764 110.605 1 6 305
1964240N15111 1964 71 WP MM NOT_NAMED 1964-08-27 00:00:00 NR 15.2000 110.300 main 140 112 __________O___ -1 15.2000 110.300 1 9 309
1964240N15111 1964 71 WP MM NOT_NAMED 1964-08-27 03:00:00 NR 15.5220 109.910 main 112 92 __________P___ -1 15.5220 109.910 1 11 310
1964240N15111 1964 71 WP MM NOT_NAMED 1964-08-27 06:00:00 NR 15.9001 109.449 main 92 78 __________P___ -1 15.9001 109.449 1 12 309
1964240N15111 1964 71 WP MM NOT_NAMED 1964-08-27 09:00:00 NR 16.2781 108.938 main 72 54 __________P___ -1 16.2781 108.938 1 12 305
1964240N15111 1964 71 WP MM NOT_NAMED 1964-08-27 12:00:00 NR 16.6000 108.400 main 55 48 __________O___ -1 16.6000 108.400 1 11 302
1964240N15111 1964 71 WP MM NOT_NAMED 1964-08-27 15:00:00 NR 16.8429 108.002 main 48 38 __________P___ -1 16.8429 108.002 1 9 297
1964240N15111 1964 71 WP MM NOT_NAMED 1964-08-27 18:00:00 NR 17.0163 107.563 main 38 0 __________P___ -1 17.0163 107.563 1 10 285
1964240N15111 1964 71 WP MM NOT_NAMED 1964-08-27 21:00:00 NR 17.1069 106.993 main 0 0 __________P___ -1 17.1069 106.993 1 13 274
1964240N15111 1964 71 WP MM NOT_NAMED 1964-08-28 00:00:00 NR 17.1000 106.200 main 0 0 __________O___ -1 17.1000 106.200 1 18 266
1964240N15111 1964 71 WP MM NOT_NAMED 1964-08-28 03:00:00 NR 16.9745 105.077 main 0 0 __________P___ -1 16.9745 105.077 1 24 262
1964240N15111 1964 71 WP MM NOT_NAMED 1964-08-28 06:00:00 NR 16.7513 103.735 main 0 0 __________P___ -1 16.7513 103.735 1 27 259
1964240N15111 1964 71 WP MM NOT_NAMED 1964-08-28 09:00:00 NR 16.4768 102.276 main 0 0 __________P___ -1 16.4768 102.276 1 29 259
1964240N15111 1964 71 WP MM NOT_NAMED 1964-08-28 12:00:00 NR 16.2000 100.800 main 0 0 __________O___ -1 16.2000 100.800 1 28 259
1964240N15111 1964 71 NI BB NOT_NAMED 1964-08-28 15:00:00 NR 15.9611 99.3829 main 0 0 __________P___ -1 15.9611 99.3829 1 27 261
1964240N15111 1964 71 NI BB NOT_NAMED 1964-08-28 18:00:00 NR 15.7574 98.0234 main 0 0 __________P___ -1 15.7574 98.0234 1 26 261
1964240N15111 1964 71 NI BB NOT_NAMED 1964-08-28 21:00:00 NR 15.5752 96.7018 main 99 33 __________P___ -1 15.5752 96.7018 1 26 262
1964240N15111 1964 71 NI BB NOT_NAMED 1964-08-29 00:00:00 NR 15.4000 95.4000 main 33 __________O___ -1 15.4000 95.4000 1 25 262

デジタル台風データ・検索

IBTrACS Databaseについて

本データベースは、米国NOAAが公開する1842年以降の世界の熱帯低気圧のベストトラックデータアーカイブInternational Best Track Archive for Climate Stewardship (IBTrACS)を、ウェブで閲覧しやすい形式に変換したものです。

最終更新日:2021-10-08